sensor_id;sensor_type;location;lat;lon;timestamp;temperature;humidity
2621;DHT22;1320;48.128;11.592;2023-01-05T00:01:05;11.70;99.90
2621;DHT22;1320;48.128;11.592;2023-01-05T00:03:31;11.80;99.90
2621;DHT22;1320;48.128;11.592;2023-01-05T00:06:01;11.80;99.90
2621;DHT22;1320;48.128;11.592;2023-01-05T00:08:27;11.80;99.90
2621;DHT22;1320;48.128;11.592;2023-01-05T00:10:53;11.80;99.90
2621;DHT22;1320;48.128;11.592;2023-01-05T00:13:37;11.90;99.90
2621;DHT22;1320;48.128;11.592;2023-01-05T00:16:21;11.90;99.90
2621;DHT22;1320;48.128;11.592;2023-01-05T00:19:10;11.80;99.90
2621;DHT22;1320;48.128;11.592;2023-01-05T00:21:55;11.80;99.90
2621;DHT22;1320;48.128;11.592;2023-01-05T00:24:39;11.80;99.90
2621;DHT22;1320;48.128;11.592;2023-01-05T00:27:05;11.80;99.90
2621;DHT22;1320;48.128;11.592;2023-01-05T00:29:31;11.80;99.90
2621;DHT22;1320;48.128;11.592;2023-01-05T00:31:56;11.90;99.90
2621;DHT22;1320;48.128;11.592;2023-01-05T00:34:28;11.90;99.90
2621;DHT22;1320;48.128;11.592;2023-01-05T00:36:53;11.80;99.90
2621;DHT22;1320;48.128;11.592;2023-01-05T00:39:19;11.80;99.90
2621;DHT22;1320;48.128;11.592;2023-01-05T00:41:45;11.80;99.90
2621;DHT22;1320;48.128;11.592;2023-01-05T00:44:11;11.90;99.90
2621;DHT22;1320;48.128;11.592;2023-01-05T00:46:36;11.80;99.90
2621;DHT22;1320;48.128;11.592;2023-01-05T00:49:02;11.90;99.90
2621;DHT22;1320;48.128;11.592;2023-01-05T00:51:28;11.90;99.90
2621;DHT22;1320;48.128;11.592;2023-01-05T00:53:53;11.90;99.90
2621;DHT22;1320;48.128;11.592;2023-01-05T00:56:19;11.90;99.90
2621;DHT22;1320;48.128;11.592;2023-01-05T00:58:45;11.90;99.90
2621;DHT22;1320;48.128;11.592;2023-01-05T01:01:11;12.00;99.90
2621;DHT22;1320;48.128;11.592;2023-01-05T01:03:38;12.00;99.90
2621;DHT22;1320;48.128;11.592;2023-01-05T01:06:04;12.10;99.90
2621;DHT22;1320;48.128;11.592;2023-01-05T01:08:30;12.00;99.90
2621;DHT22;1320;48.128;11.592;2023-01-05T01:10:56;12.00;99.90
2621;DHT22;1320;48.128;11.592;2023-01-05T01:13:24;12.00;99.90
2621;DHT22;1320;48.128;11.592;2023-01-05T01:15:50;12.10;99.90
2621;DHT22;1320;48.128;11.592;2023-01-05T01:18:16;12.10;99.90
2621;DHT22;1320;48.128;11.592;2023-01-05T01:20:41;12.00;99.90
2621;DHT22;1320;48.128;11.592;2023-01-05T01:23:07;12.00;99.90
2621;DHT22;1320;48.128;11.592;2023-01-05T01:25:33;12.00;99.90
2621;DHT22;1320;48.128;11.592;2023-01-05T01:27:59;12.10;99.90
2621;DHT22;1320;48.128;11.592;2023-01-05T01:30:24;12.00;99.90
2621;DHT22;1320;48.128;11.592;2023-01-05T01:32:50;12.10;99.90
2621;DHT22;1320;48.128;11.592;2023-01-05T01:35:15;12.00;99.90
2621;DHT22;1320;48.128;11.592;2023-01-05T01:37:41;12.00;99.90
2621;DHT22;1320;48.128;11.592;2023-01-05T01:40:07;11.90;99.90
2621;DHT22;1320;48.128;11.592;2023-01-05T01:42:33;12.00;99.90
2621;DHT22;1320;48.128;11.592;2023-01-05T01:45:21;12.00;99.90
2621;DHT22;1320;48.128;11.592;2023-01-05T01:47:58;12.00;99.90
2621;DHT22;1320;48.128;11.592;2023-01-05T01:50:31;12.00;99.90
2621;DHT22;1320;48.128;11.592;2023-01-05T01:53:02;12.00;99.90
2621;DHT22;1320;48.128;11.592;2023-01-05T01:55:30;12.00;99.90
2621;DHT22;1320;48.128;11.592;2023-01-05T01:57:58;11.90;99.90
2621;DHT22;1320;48.128;11.592;2023-01-05T02:00:24;11.90;99.90
2621;DHT22;1320;48.128;11.592;2023-01-05T02:02:53;11.90;99.90
2621;DHT22;1320;48.128;11.592;2023-01-05T02:05:24;11.90;99.90
2621;DHT22;1320;48.128;11.592;2023-01-05T02:07:52;11.90;99.90
2621;DHT22;1320;48.128;11.592;2023-01-05T02:10:25;12.00;99.90
2621;DHT22;1320;48.128;11.592;2023-01-05T02:13:20;12.00;99.90
2621;DHT22;1320;48.128;11.592;2023-01-05T02:16:28;12.00;99.90
2621;DHT22;1320;48.128;11.592;2023-01-05T02:33:58;11.80;99.90
2621;DHT22;1320;48.128;11.592;2023-01-05T02:42:13;12.00;99.90
2621;DHT22;1320;48.128;11.592;2023-01-05T02:44:41;12.00;99.90
2621;DHT22;1320;48.128;11.592;2023-01-05T02:50:00;11.90;99.90
2621;DHT22;1320;48.128;11.592;2023-01-05T02:52:33;11.90;99.90
2621;DHT22;1320;48.128;11.592;2023-01-05T02:55:06;11.90;99.90
2621;DHT22;1320;48.128;11.592;2023-01-05T02:57:34;11.80;99.90
2621;DHT22;1320;48.128;11.592;2023-01-05T03:00:21;11.80;99.90
2621;DHT22;1320;48.128;11.592;2023-01-05T03:02:55;11.80;99.90
2621;DHT22;1320;48.128;11.592;2023-01-05T03:05:25;11.70;99.90
2621;DHT22;1320;48.128;11.592;2023-01-05T03:07:54;11.60;99.90
2621;DHT22;1320;48.128;11.592;2023-01-05T03:10:36;11.60;99.90
2621;DHT22;1320;48.128;11.592;2023-01-05T03:13:26;11.50;99.90
2621;DHT22;1320;48.128;11.592;2023-01-05T03:16:11;11.50;99.90
2621;DHT22;1320;48.128;11.592;2023-01-05T03:18:39;11.50;99.90
2621;DHT22;1320;48.128;11.592;2023-01-05T03:21:26;11.40;99.90
2621;DHT22;1320;48.128;11.592;2023-01-05T03:23:54;11.30;99.90
2621;DHT22;1320;48.128;11.592;2023-01-05T03:26:40;11.30;99.90
2621;DHT22;1320;48.128;11.592;2023-01-05T03:29:26;11.20;99.90
2621;DHT22;1320;48.128;11.592;2023-01-05T03:32:21;11.10;99.90
2621;DHT22;1320;48.128;11.592;2023-01-05T03:35:16;11.10;99.90
2621;DHT22;1320;48.128;11.592;2023-01-05T03:38:32;11.10;99.90
2621;DHT22;1320;48.128;11.592;2023-01-05T03:41:01;11.10;99.90
2621;DHT22;1320;48.128;11.592;2023-01-05T03:43:28;11.10;99.90
2621;DHT22;1320;48.128;11.592;2023-01-05T03:45:57;11.10;99.90
2621;DHT22;1320;48.128;11.592;2023-01-05T03:48:24;11.20;99.90
2621;DHT22;1320;48.128;11.592;2023-01-05T03:50:52;11.20;99.90
2621;DHT22;1320;48.128;11.592;2023-01-05T03:53:18;11.30;99.90
2621;DHT22;1320;48.128;11.592;2023-01-05T03:55:43;11.30;99.90
2621;DHT22;1320;48.128;11.592;2023-01-05T03:58:09;11.30;99.90
2621;DHT22;1320;48.128;11.592;2023-01-05T04:00:35;11.40;99.90
2621;DHT22;1320;48.128;11.592;2023-01-05T04:03:00;11.40;99.90
2621;DHT22;1320;48.128;11.592;2023-01-05T04:05:26;11.40;99.90
2621;DHT22;1320;48.128;11.592;2023-01-05T04:07:52;11.40;99.90
2621;DHT22;1320;48.128;11.592;2023-01-05T04:10:18;11.40;99.90
2621;DHT22;1320;48.128;11.592;2023-01-05T04:12:43;11.50;99.90
2621;DHT22;1320;48.128;11.592;2023-01-05T04:15:11;11.50;99.90
2621;DHT22;1320;48.128;11.592;2023-01-05T04:17:36;11.50;99.90
2621;DHT22;1320;48.128;11.592;2023-01-05T04:20:02;11.50;99.90
2621;DHT22;1320;48.128;11.592;2023-01-05T04:22:31;11.60;99.90
2621;DHT22;1320;48.128;11.592;2023-01-05T04:24:57;11.60;99.90
2621;DHT22;1320;48.128;11.592;2023-01-05T04:27:22;11.70;99.90
2621;DHT22;1320;48.128;11.592;2023-01-05T04:29:48;11.80;99.90
2621;DHT22;1320;48.128;11.592;2023-01-05T04:32:14;11.80;99.90
2621;DHT22;1320;48.128;11.592;2023-01-05T04:34:39;11.90;99.90
2621;DHT22;1320;48.128;11.592;2023-01-05T04:37:05;12.00;99.90
2621;DHT22;1320;48.128;11.592;2023-01-05T04:39:31;12.00;99.90
2621;DHT22;1320;48.128;11.592;2023-01-05T04:41:56;12.10;99.90
2621;DHT22;1320;48.128;11.592;2023-01-05T04:44:28;12.10;99.90
2621;DHT22;1320;48.128;11.592;2023-01-05T04:46:54;12.10;99.90
2621;DHT22;1320;48.128;11.592;2023-01-05T04:49:19;12.10;99.90
2621;DHT22;1320;48.128;11.592;2023-01-05T04:51:45;12.10;99.90
2621;DHT22;1320;48.128;11.592;2023-01-05T04:54:11;12.10;99.90
2621;DHT22;1320;48.128;11.592;2023-01-05T04:56:36;12.10;99.90
2621;DHT22;1320;48.128;11.592;2023-01-05T04:59:02;12.10;99.90
2621;DHT22;1320;48.128;11.592;2023-01-05T05:01:27;12.20;99.90
2621;DHT22;1320;48.128;11.592;2023-01-05T05:03:53;12.20;99.90
2621;DHT22;1320;48.128;11.592;2023-01-05T05:06:19;12.20;99.90
2621;DHT22;1320;48.128;11.592;2023-01-05T05:08:44;12.20;99.90
2621;DHT22;1320;48.128;11.592;2023-01-05T05:11:10;12.10;99.90
2621;DHT22;1320;48.128;11.592;2023-01-05T05:13:35;12.20;99.90
2621;DHT22;1320;48.128;11.592;2023-01-05T05:16:01;12.20;99.90
2621;DHT22;1320;48.128;11.592;2023-01-05T05:18:27;12.20;99.90
2621;DHT22;1320;48.128;11.592;2023-01-05T05:20:53;12.20;99.90
2621;DHT22;1320;48.128;11.592;2023-01-05T05:23:18;12.20;99.90
2621;DHT22;1320;48.128;11.592;2023-01-05T05:25:47;12.20;99.90
2621;DHT22;1320;48.128;11.592;2023-01-05T05:28:13;12.10;99.90
2621;DHT22;1320;48.128;11.592;2023-01-05T05:30:39;12.10;99.90
2621;DHT22;1320;48.128;11.592;2023-01-05T05:33:04;12.10;99.90
2621;DHT22;1320;48.128;11.592;2023-01-05T05:35:30;12.10;99.90
2621;DHT22;1320;48.128;11.592;2023-01-05T05:37:55;12.10;99.90
2621;DHT22;1320;48.128;11.592;2023-01-05T05:40:21;12.10;99.90
2621;DHT22;1320;48.128;11.592;2023-01-05T05:42:47;12.10;99.90
2621;DHT22;1320;48.128;11.592;2023-01-05T05:45:12;12.10;99.90
2621;DHT22;1320;48.128;11.592;2023-01-05T05:47:38;12.10;99.90
2621;DHT22;1320;48.128;11.592;2023-01-05T05:50:04;12.10;99.90
2621;DHT22;1320;48.128;11.592;2023-01-05T05:52:30;12.10;99.90
2621;DHT22;1320;48.128;11.592;2023-01-05T05:54:55;12.20;99.90
2621;DHT22;1320;48.128;11.592;2023-01-05T05:57:21;12.20;99.90
2621;DHT22;1320;48.128;11.592;2023-01-05T05:59:46;12.20;99.90
2621;DHT22;1320;48.128;11.592;2023-01-05T06:02:12;12.20;99.90
2621;DHT22;1320;48.128;11.592;2023-01-05T06:04:38;12.20;99.90
2621;DHT22;1320;48.128;11.592;2023-01-05T06:07:03;12.20;99.90
2621;DHT22;1320;48.128;11.592;2023-01-05T06:09:29;12.20;99.90
2621;DHT22;1320;48.128;11.592;2023-01-05T06:11:55;12.10;99.90
2621;DHT22;1320;48.128;11.592;2023-01-05T06:14:26;12.10;99.90
2621;DHT22;1320;48.128;11.592;2023-01-05T06:16:52;12.20;99.90
2621;DHT22;1320;48.128;11.592;2023-01-05T06:19:21;12.20;99.90
2621;DHT22;1320;48.128;11.592;2023-01-05T06:21:46;12.20;99.90
2621;DHT22;1320;48.128;11.592;2023-01-05T06:24:12;12.30;99.90
2621;DHT22;1320;48.128;11.592;2023-01-05T06:26:38;12.20;99.90
2621;DHT22;1320;48.128;11.592;2023-01-05T06:29:03;12.20;99.90
2621;DHT22;1320;48.128;11.592;2023-01-05T06:31:29;12.20;99.90
2621;DHT22;1320;48.128;11.592;2023-01-05T06:33:55;12.20;99.90
2621;DHT22;1320;48.128;11.592;2023-01-05T06:36:20;12.10;99.90
2621;DHT22;1320;48.128;11.592;2023-01-05T06:38:46;12.00;99.90
2621;DHT22;1320;48.128;11.592;2023-01-05T06:41:11;12.00;99.90
2621;DHT22;1320;48.128;11.592;2023-01-05T06:43:37;12.00;99.90
2621;DHT22;1320;48.128;11.592;2023-01-05T06:46:03;12.00;99.90
2621;DHT22;1320;48.128;11.592;2023-01-05T06:48:28;12.00;99.90
2621;DHT22;1320;48.128;11.592;2023-01-05T06:50:54;12.00;99.90
2621;DHT22;1320;48.128;11.592;2023-01-05T06:53:20;11.90;99.90
2621;DHT22;1320;48.128;11.592;2023-01-05T06:55:45;12.00;99.90
2621;DHT22;1320;48.128;11.592;2023-01-05T06:58:11;12.00;99.90
2621;DHT22;1320;48.128;11.592;2023-01-05T07:00:37;11.90;99.90
2621;DHT22;1320;48.128;11.592;2023-01-05T07:03:02;11.90;99.90
2621;DHT22;1320;48.128;11.592;2023-01-05T07:05:28;11.90;99.90
2621;DHT22;1320;48.128;11.592;2023-01-05T07:07:54;12.00;99.90
2621;DHT22;1320;48.128;11.592;2023-01-05T07:10:19;12.00;99.90
2621;DHT22;1320;48.128;11.592;2023-01-05T07:12:45;12.00;99.90
2621;DHT22;1320;48.128;11.592;2023-01-05T07:15:11;12.10;99.90
2621;DHT22;1320;48.128;11.592;2023-01-05T07:17:36;12.00;99.90
2621;DHT22;1320;48.128;11.592;2023-01-05T07:20:04;11.90;99.90
2621;DHT22;1320;48.128;11.592;2023-01-05T07:22:29;11.90;99.90
2621;DHT22;1320;48.128;11.592;2023-01-05T07:24:56;11.90;99.90
2621;DHT22;1320;48.128;11.592;2023-01-05T07:27:23;12.00;99.90
2621;DHT22;1320;48.128;11.592;2023-01-05T07:29:48;11.90;99.90
2621;DHT22;1320;48.128;11.592;2023-01-05T07:32:14;11.90;99.90
2621;DHT22;1320;48.128;11.592;2023-01-05T07:34:40;12.00;99.90
2621;DHT22;1320;48.128;11.592;2023-01-05T07:37:05;12.10;99.90
2621;DHT22;1320;48.128;11.592;2023-01-05T07:39:31;12.10;99.90
2621;DHT22;1320;48.128;11.592;2023-01-05T07:41:57;12.10;99.90
2621;DHT22;1320;48.128;11.592;2023-01-05T07:44:23;12.10;99.90
2621;DHT22;1320;48.128;11.592;2023-01-05T07:46:48;12.10;99.90
2621;DHT22;1320;48.128;11.592;2023-01-05T07:49:20;12.10;99.90
2621;DHT22;1320;48.128;11.592;2023-01-05T07:51:45;12.10;99.90
2621;DHT22;1320;48.128;11.592;2023-01-05T07:54:11;12.10;99.90
2621;DHT22;1320;48.128;11.592;2023-01-05T07:56:37;12.10;99.90
2621;DHT22;1320;48.128;11.592;2023-01-05T07:59:03;12.10;99.90
2621;DHT22;1320;48.128;11.592;2023-01-05T08:01:28;12.10;99.90
2621;DHT22;1320;48.128;11.592;2023-01-05T08:03:54;12.10;99.90
2621;DHT22;1320;48.128;11.592;2023-01-05T08:06:20;12.10;99.90
2621;DHT22;1320;48.128;11.592;2023-01-05T08:08:46;12.10;99.90
2621;DHT22;1320;48.128;11.592;2023-01-05T08:11:14;12.20;99.90
2621;DHT22;1320;48.128;11.592;2023-01-05T08:13:41;12.20;99.90
2621;DHT22;1320;48.128;11.592;2023-01-05T08:16:28;12.20;99.90
2621;DHT22;1320;48.128;11.592;2023-01-05T08:18:55;12.20;99.90
2621;DHT22;1320;48.128;11.592;2023-01-05T08:21:20;12.20;99.90
2621;DHT22;1320;48.128;11.592;2023-01-05T08:23:52;12.20;99.90
2621;DHT22;1320;48.128;11.592;2023-01-05T08:26:20;12.20;99.90
2621;DHT22;1320;48.128;11.592;2023-01-05T08:28:46;12.20;99.90
2621;DHT22;1320;48.128;11.592;2023-01-05T08:31:24;12.20;99.90
2621;DHT22;1320;48.128;11.592;2023-01-05T08:33:53;12.20;99.90
2621;DHT22;1320;48.128;11.592;2023-01-05T08:36:19;12.20;99.90
2621;DHT22;1320;48.128;11.592;2023-01-05T08:38:50;12.20;99.90
2621;DHT22;1320;48.128;11.592;2023-01-05T08:41:22;12.20;99.90
2621;DHT22;1320;48.128;11.592;2023-01-05T08:43:53;12.10;99.90
2621;DHT22;1320;48.128;11.592;2023-01-05T08:46:19;12.20;99.90
2621;DHT22;1320;48.128;11.592;2023-01-05T08:48:49;12.10;99.90
2621;DHT22;1320;48.128;11.592;2023-01-05T08:51:16;12.10;99.90
2621;DHT22;1320;48.128;11.592;2023-01-05T08:53:42;11.90;99.90
2621;DHT22;1320;48.128;11.592;2023-01-05T08:56:08;11.90;99.90
2621;DHT22;1320;48.128;11.592;2023-01-05T08:58:36;11.90;99.90
2621;DHT22;1320;48.128;11.592;2023-01-05T09:01:07;11.80;99.90
2621;DHT22;1320;48.128;11.592;2023-01-05T09:03:33;11.80;99.90
2621;DHT22;1320;48.128;11.592;2023-01-05T09:05:59;11.90;99.90
2621;DHT22;1320;48.128;11.592;2023-01-05T09:08:29;12.00;99.90
2621;DHT22;1320;48.128;11.592;2023-01-05T09:10:54;12.00;99.90
2621;DHT22;1320;48.128;11.592;2023-01-05T09:13:20;12.10;99.90
2621;DHT22;1320;48.128;11.592;2023-01-05T09:15:46;12.20;99.90
2621;DHT22;1320;48.128;11.592;2023-01-05T09:18:11;12.20;99.90
2621;DHT22;1320;48.128;11.592;2023-01-05T09:20:37;12.30;99.90
2621;DHT22;1320;48.128;11.592;2023-01-05T09:23:03;12.40;99.90
2621;DHT22;1320;48.128;11.592;2023-01-05T09:25:28;12.40;99.90
2621;DHT22;1320;48.128;11.592;2023-01-05T09:27:54;12.40;99.90
2621;DHT22;1320;48.128;11.592;2023-01-05T09:30:19;12.50;99.90
2621;DHT22;1320;48.128;11.592;2023-01-05T09:32:45;12.50;99.90
2621;DHT22;1320;48.128;11.592;2023-01-05T09:35:11;12.50;99.90
2621;DHT22;1320;48.128;11.592;2023-01-05T09:37:36;12.60;99.90
2621;DHT22;1320;48.128;11.592;2023-01-05T09:40:02;12.50;99.90
2621;DHT22;1320;48.128;11.592;2023-01-05T09:42:28;12.50;99.90
2621;DHT22;1320;48.128;11.592;2023-01-05T09:45:00;12.60;99.90
2621;DHT22;1320;48.128;11.592;2023-01-05T09:47:40;12.60;99.90
2621;DHT22;1320;48.128;11.592;2023-01-05T09:50:16;12.60;99.90
2621;DHT22;1320;48.128;11.592;2023-01-05T09:52:43;12.60;99.90
2621;DHT22;1320;48.128;11.592;2023-01-05T09:55:16;12.60;99.90
2621;DHT22;1320;48.128;11.592;2023-01-05T09:57:55;12.60;99.90
2621;DHT22;1320;48.128;11.592;2023-01-05T10:00:23;12.60;99.90
2621;DHT22;1320;48.128;11.592;2023-01-05T10:03:00;12.70;99.90
2621;DHT22;1320;48.128;11.592;2023-01-05T10:05:27;12.70;99.90
2621;DHT22;1320;48.128;11.592;2023-01-05T10:08:04;12.80;99.90
2621;DHT22;1320;48.128;11.592;2023-01-05T10:13:04;12.80;99.90
2621;DHT22;1320;48.128;11.592;2023-01-05T10:15:44;12.80;99.90
2621;DHT22;1320;48.128;11.592;2023-01-05T10:18:16;12.90;99.90
2621;DHT22;1320;48.128;11.592;2023-01-05T10:21:19;12.90;99.90
2621;DHT22;1320;48.128;11.592;2023-01-05T10:26:42;12.90;99.90
2621;DHT22;1320;48.128;11.592;2023-01-05T10:29:12;12.90;99.90
2621;DHT22;1320;48.128;11.592;2023-01-05T10:31:58;12.90;99.90
2621;DHT22;1320;48.128;11.592;2023-01-05T10:34:46;13.00;99.90
2621;DHT22;1320;48.128;11.592;2023-01-05T10:40:21;12.90;99.90
2621;DHT22;1320;48.128;11.592;2023-01-05T10:45:51;12.90;99.90
2621;DHT22;1320;48.128;11.592;2023-01-05T10:48:26;13.00;99.90
2621;DHT22;1320;48.128;11.592;2023-01-05T10:50:53;13.00;99.90
2621;DHT22;1320;48.128;11.592;2023-01-05T10:53:24;13.00;99.90
2621;DHT22;1320;48.128;11.592;2023-01-05T10:58:37;13.00;99.90
2621;DHT22;1320;48.128;11.592;2023-01-05T11:01:22;13.10;99.90
2621;DHT22;1320;48.128;11.592;2023-01-05T11:03:52;13.10;99.90
2621;DHT22;1320;48.128;11.592;2023-01-05T11:06:26;13.10;99.90
2621;DHT22;1320;48.128;11.592;2023-01-05T11:08:52;13.10;99.90
2621;DHT22;1320;48.128;11.592;2023-01-05T11:11:25;13.20;99.90
2621;DHT22;1320;48.128;11.592;2023-01-05T11:13:57;13.20;99.90
2621;DHT22;1320;48.128;11.592;2023-01-05T11:16:32;13.20;99.90
2621;DHT22;1320;48.128;11.592;2023-01-05T11:19:03;13.20;99.90
2621;DHT22;1320;48.128;11.592;2023-01-05T11:24:04;13.20;99.90
2621;DHT22;1320;48.128;11.592;2023-01-05T11:26:54;13.20;99.90
2621;DHT22;1320;48.128;11.592;2023-01-05T11:29:20;13.10;99.90
2621;DHT22;1320;48.128;11.592;2023-01-05T11:32:08;13.10;99.90
2621;DHT22;1320;48.128;11.592;2023-01-05T11:34:45;13.10;99.90
2621;DHT22;1320;48.128;11.592;2023-01-05T11:50:33;12.30;99.90
2621;DHT22;1320;48.128;11.592;2023-01-05T11:53:03;12.20;99.90
2621;DHT22;1320;48.128;11.592;2023-01-05T11:55:36;12.30;99.90
2621;DHT22;1320;48.128;11.592;2023-01-05T12:09:36;12.30;99.90
2621;DHT22;1320;48.128;11.592;2023-01-05T12:26:58;12.70;99.90
2621;DHT22;1320;48.128;11.592;2023-01-05T12:32:13;12.70;99.90
2621;DHT22;1320;48.128;11.592;2023-01-05T12:35:04;12.80;99.90
2621;DHT22;1320;48.128;11.592;2023-01-05T12:37:56;12.90;99.90
2621;DHT22;1320;48.128;11.592;2023-01-05T12:46:16;13.10;99.90
2621;DHT22;1320;48.128;11.592;2023-01-05T12:49:07;13.20;99.90
2621;DHT22;1320;48.128;11.592;2023-01-05T12:51:42;13.20;99.90
2621;DHT22;1320;48.128;11.592;2023-01-05T12:54:28;13.30;99.90
2621;DHT22;1320;48.128;11.592;2023-01-05T12:57:14;13.30;99.90
2621;DHT22;1320;48.128;11.592;2023-01-05T13:02:17;13.20;99.90
2621;DHT22;1320;48.128;11.592;2023-01-05T13:04:54;13.20;99.90
2621;DHT22;1320;48.128;11.592;2023-01-05T13:07:26;13.20;99.90
2621;DHT22;1320;48.128;11.592;2023-01-05T13:09:59;13.20;99.90
2621;DHT22;1320;48.128;11.592;2023-01-05T13:12:26;13.20;99.90
2621;DHT22;1320;48.128;11.592;2023-01-05T13:15:10;13.30;99.90
2621;DHT22;1320;48.128;11.592;2023-01-05T13:17:43;13.30;99.90
2621;DHT22;1320;48.128;11.592;2023-01-05T13:22:46;13.20;99.90
2621;DHT22;1320;48.128;11.592;2023-01-05T13:25:19;13.20;99.90
2621;DHT22;1320;48.128;11.592;2023-01-05T13:27:45;13.20;99.90
2621;DHT22;1320;48.128;11.592;2023-01-05T13:30:25;13.10;99.90
2621;DHT22;1320;48.128;11.592;2023-01-05T13:46:09;12.90;99.90
2621;DHT22;1320;48.128;11.592;2023-01-05T13:53:53;12.70;99.90
2621;DHT22;1320;48.128;11.592;2023-01-05T13:56:27;12.60;99.90
2621;DHT22;1320;48.128;11.592;2023-01-05T13:59:06;12.60;99.90
2621;DHT22;1320;48.128;11.592;2023-01-05T14:01:40;12.50;99.90
2621;DHT22;1320;48.128;11.592;2023-01-05T14:04:20;12.60;99.90
2621;DHT22;1320;48.128;11.592;2023-01-05T14:06:49;12.60;99.90
2621;DHT22;1320;48.128;11.592;2023-01-05T14:09:25;12.50;99.90
2621;DHT22;1320;48.128;11.592;2023-01-05T14:26:01;12.70;99.90
2621;DHT22;1320;48.128;11.592;2023-01-05T14:33:48;12.70;99.90
2621;DHT22;1320;48.128;11.592;2023-01-05T14:36:36;12.80;99.90
2621;DHT22;1320;48.128;11.592;2023-01-05T14:39:21;12.80;99.90
2621;DHT22;1320;48.128;11.592;2023-01-05T14:47:08;12.90;99.90
2621;DHT22;1320;48.128;11.592;2023-01-05T14:49:54;12.90;99.90
2621;DHT22;1320;48.128;11.592;2023-01-05T14:53:38;12.80;99.90
2621;DHT22;1320;48.128;11.592;2023-01-05T15:01:16;12.80;99.90
2621;DHT22;1320;48.128;11.592;2023-01-05T15:03:59;12.80;99.90
2621;DHT22;1320;48.128;11.592;2023-01-05T15:15:17;12.30;99.90
2621;DHT22;1320;48.128;11.592;2023-01-05T15:32:05;12.00;99.90
2621;DHT22;1320;48.128;11.592;2023-01-05T15:34:51;12.00;99.90
2621;DHT22;1320;48.128;11.592;2023-01-05T15:39:55;12.00;99.90
2621;DHT22;1320;48.128;11.592;2023-01-05T15:44:57;12.00;99.90
2621;DHT22;1320;48.128;11.592;2023-01-05T15:47:24;12.00;99.90
2621;DHT22;1320;48.128;11.592;2023-01-05T15:49:55;12.00;99.90
2621;DHT22;1320;48.128;11.592;2023-01-05T15:52:37;12.00;99.90
2621;DHT22;1320;48.128;11.592;2023-01-05T15:57:35;12.10;99.90
2621;DHT22;1320;48.128;11.592;2023-01-05T16:00:01;12.10;99.90
2621;DHT22;1320;48.128;11.592;2023-01-05T16:02:28;12.10;99.90
2621;DHT22;1320;48.128;11.592;2023-01-05T16:05:12;12.20;99.90
2621;DHT22;1320;48.128;11.592;2023-01-05T16:13:03;12.30;99.90
2621;DHT22;1320;48.128;11.592;2023-01-05T16:15:33;12.30;99.90
2621;DHT22;1320;48.128;11.592;2023-01-05T16:17:59;12.30;99.90
2621;DHT22;1320;48.128;11.592;2023-01-05T16:20:25;12.30;99.90
2621;DHT22;1320;48.128;11.592;2023-01-05T16:23:59;12.30;99.90
2621;DHT22;1320;48.128;11.592;2023-01-05T16:25:58;12.30;99.90
2621;DHT22;1320;48.128;11.592;2023-01-05T16:28:25;12.20;99.90
2621;DHT22;1320;48.128;11.592;2023-01-05T16:30:52;12.20;99.90
2621;DHT22;1320;48.128;11.592;2023-01-05T16:33:32;12.10;99.90
2621;DHT22;1320;48.128;11.592;2023-01-05T16:36:20;12.00;99.90
2621;DHT22;1320;48.128;11.592;2023-01-05T16:38:47;12.00;99.90
2621;DHT22;1320;48.128;11.592;2023-01-05T16:41:21;12.00;99.90
2621;DHT22;1320;48.128;11.592;2023-01-05T16:43:59;11.90;99.90
2621;DHT22;1320;48.128;11.592;2023-01-05T16:46:45;11.80;99.90
2621;DHT22;1320;48.128;11.592;2023-01-05T16:49:33;11.70;99.90
2621;DHT22;1320;48.128;11.592;2023-01-05T16:52:00;11.60;99.90
2621;DHT22;1320;48.128;11.592;2023-01-05T16:57:03;11.50;99.90
2621;DHT22;1320;48.128;11.592;2023-01-05T16:59:43;11.50;99.90
2621;DHT22;1320;48.128;11.592;2023-01-05T17:04:55;11.50;99.90
2621;DHT22;1320;48.128;11.592;2023-01-05T17:07:20;11.50;99.90
2621;DHT22;1320;48.128;11.592;2023-01-05T17:09:46;11.50;99.90
2621;DHT22;1320;48.128;11.592;2023-01-05T17:12:12;11.50;99.90
2621;DHT22;1320;48.128;11.592;2023-01-05T17:14:39;11.40;99.90
2621;DHT22;1320;48.128;11.592;2023-01-05T17:17:08;11.40;99.90
2621;DHT22;1320;48.128;11.592;2023-01-05T17:19:35;11.30;99.90
2621;DHT22;1320;48.128;11.592;2023-01-05T17:22:01;11.30;99.90
2621;DHT22;1320;48.128;11.592;2023-01-05T17:24:31;11.40;99.90
2621;DHT22;1320;48.128;11.592;2023-01-05T17:26:57;11.40;99.90
2621;DHT22;1320;48.128;11.592;2023-01-05T17:29:28;11.30;99.90
2621;DHT22;1320;48.128;11.592;2023-01-05T17:31:54;11.40;99.90
2621;DHT22;1320;48.128;11.592;2023-01-05T17:34:20;11.40;99.90
2621;DHT22;1320;48.128;11.592;2023-01-05T17:36:48;11.40;99.90
2621;DHT22;1320;48.128;11.592;2023-01-05T17:39:16;11.50;99.90
2621;DHT22;1320;48.128;11.592;2023-01-05T17:41:42;11.50;99.90
2621;DHT22;1320;48.128;11.592;2023-01-05T17:44:08;11.40;99.90
2621;DHT22;1320;48.128;11.592;2023-01-05T17:46:37;11.50;99.90
2621;DHT22;1320;48.128;11.592;2023-01-05T17:49:05;11.50;99.90
2621;DHT22;1320;48.128;11.592;2023-01-05T17:51:31;11.50;99.90
2621;DHT22;1320;48.128;11.592;2023-01-05T17:53:57;11.60;99.90
2621;DHT22;1320;48.128;11.592;2023-01-05T17:56:24;11.60;99.90
2621;DHT22;1320;48.128;11.592;2023-01-05T17:58:50;11.60;99.90
2621;DHT22;1320;48.128;11.592;2023-01-05T18:01:16;11.60;99.90
2621;DHT22;1320;48.128;11.592;2023-01-05T18:03:42;11.70;99.90
2621;DHT22;1320;48.128;11.592;2023-01-05T18:06:08;11.70;99.90
2621;DHT22;1320;48.128;11.592;2023-01-05T18:08:34;11.70;99.90
2621;DHT22;1320;48.128;11.592;2023-01-05T18:11:04;11.70;99.90
2621;DHT22;1320;48.128;11.592;2023-01-05T18:13:32;11.70;99.90
2621;DHT22;1320;48.128;11.592;2023-01-05T18:15:57;11.70;99.90
2621;DHT22;1320;48.128;11.592;2023-01-05T18:18:23;11.70;99.90
2621;DHT22;1320;48.128;11.592;2023-01-05T18:20:50;11.70;99.90
2621;DHT22;1320;48.128;11.592;2023-01-05T18:23:17;11.60;99.90
2621;DHT22;1320;48.128;11.592;2023-01-05T18:25:43;11.60;99.90
2621;DHT22;1320;48.128;11.592;2023-01-05T18:28:09;11.60;99.90
2621;DHT22;1320;48.128;11.592;2023-01-05T18:30:35;11.50;99.90
2621;DHT22;1320;48.128;11.592;2023-01-05T18:33:01;11.50;99.90
2621;DHT22;1320;48.128;11.592;2023-01-05T18:35:27;11.50;99.90
2621;DHT22;1320;48.128;11.592;2023-01-05T18:37:53;11.60;99.90
2621;DHT22;1320;48.128;11.592;2023-01-05T18:40:25;11.60;99.90
2621;DHT22;1320;48.128;11.592;2023-01-05T18:42:51;11.60;99.90
2621;DHT22;1320;48.128;11.592;2023-01-05T18:45:17;11.60;99.90
2621;DHT22;1320;48.128;11.592;2023-01-05T18:47:42;11.60;99.90
2621;DHT22;1320;48.128;11.592;2023-01-05T18:50:08;11.60;99.90
2621;DHT22;1320;48.128;11.592;2023-01-05T18:52:34;11.60;99.90
2621;DHT22;1320;48.128;11.592;2023-01-05T18:55:00;11.60;99.90
2621;DHT22;1320;48.128;11.592;2023-01-05T18:57:28;11.70;99.90
2621;DHT22;1320;48.128;11.592;2023-01-05T18:59:54;11.70;99.90
2621;DHT22;1320;48.128;11.592;2023-01-05T19:02:19;11.70;99.90
2621;DHT22;1320;48.128;11.592;2023-01-05T19:04:46;11.80;99.90
2621;DHT22;1320;48.128;11.592;2023-01-05T19:07:11;11.80;99.90